createdAt,value
2022-08-20T00:00:06.823Z,19.49
2022-08-20T00:02:41.146Z,19.49
2022-08-20T00:05:07.657Z,19.43
2022-08-20T00:07:34.013Z,19.51
2022-08-20T00:10:00.650Z,19.52
2022-08-20T00:12:27.105Z,19.53
2022-08-20T00:14:53.417Z,19.39
2022-08-20T00:17:19.733Z,19.50
2022-08-20T00:19:46.046Z,19.44
2022-08-20T00:22:13.526Z,19.47
2022-08-20T00:24:39.870Z,19.42
2022-08-20T00:27:06.311Z,19.43
2022-08-20T00:29:32.621Z,19.38
2022-08-20T00:31:59.427Z,19.36
2022-08-20T00:34:25.800Z,19.26
2022-08-20T00:36:52.158Z,19.18
2022-08-20T00:39:18.491Z,19.19
2022-08-20T00:41:45.222Z,19.20
2022-08-20T00:44:13.610Z,19.08
2022-08-20T00:46:40.770Z,19.25
2022-08-20T00:49:17.665Z,19.24
2022-08-20T00:51:46.513Z,19.16
2022-08-20T00:54:27.812Z,19.14
2022-08-20T00:57:00.489Z,19.04
2022-08-20T00:59:28.368Z,19.03
2022-08-20T01:01:55.440Z,19.12
2022-08-20T01:04:25.169Z,19.17
2022-08-20T01:06:51.735Z,19.13
2022-08-20T01:09:18.035Z,19.16
2022-08-20T01:12:05.305Z,19.13
2022-08-20T01:14:34.308Z,19.03
2022-08-20T01:17:02.315Z,19.15
2022-08-20T01:19:31.268Z,19.16
2022-08-20T01:21:59.198Z,19.21
2022-08-20T01:24:36.880Z,19.36
2022-08-20T01:27:04.173Z,19.34
2022-08-20T01:29:34.889Z,19.41
2022-08-20T01:32:02.297Z,19.27
2022-08-20T01:34:28.759Z,19.45
2022-08-20T01:36:56.056Z,19.49
2022-08-20T01:39:24.593Z,19.49
2022-08-20T01:42:02.845Z,19.47
2022-08-20T01:44:29.946Z,19.39
2022-08-20T01:46:59.539Z,19.40
2022-08-20T01:49:30.317Z,19.32
2022-08-20T01:51:59.010Z,19.38
2022-08-20T01:54:27.106Z,19.25
2022-08-20T01:56:56.311Z,19.31
2022-08-20T01:59:22.655Z,19.38
2022-08-20T02:01:49.102Z,19.40
2022-08-20T02:04:17.174Z,19.39
2022-08-20T02:06:45.430Z,19.33
2022-08-20T02:09:23.928Z,19.43
2022-08-20T02:11:50.357Z,19.36
2022-08-20T02:14:16.862Z,19.36
2022-08-20T02:16:45.802Z,19.18
2022-08-20T02:19:22.878Z,19.22
2022-08-20T02:21:51.787Z,19.21
2022-08-20T02:24:18.340Z,19.09
2022-08-20T02:26:44.653Z,19.18
2022-08-20T02:29:12.168Z,19.17
2022-08-20T02:32:23.592Z,19.16
2022-08-20T02:34:25.344Z,19.12
2022-08-20T02:36:52.425Z,19.12
2022-08-20T02:39:18.720Z,19.11
2022-08-20T02:41:45.018Z,18.92
2022-08-20T02:44:12.378Z,19.05
2022-08-20T02:46:38.847Z,19.12
2022-08-20T02:49:05.182Z,19.10
2022-08-20T02:51:31.729Z,19.18
2022-08-20T02:53:58.215Z,18.99
2022-08-20T02:56:24.624Z,19.05
2022-08-20T02:58:50.932Z,19.17
2022-08-20T03:01:17.671Z,19.21
2022-08-20T03:03:44.297Z,19.26
2022-08-20T03:06:11.127Z,19.25
2022-08-20T03:08:38.122Z,19.40
2022-08-20T03:11:05.347Z,19.41
2022-08-20T03:13:31.763Z,19.44
2022-08-20T03:15:59.354Z,19.49
2022-08-20T03:18:27.638Z,19.53
2022-08-20T03:20:53.954Z,19.59
2022-08-20T03:23:21.694Z,19.65
2022-08-20T03:25:48.121Z,19.65
2022-08-20T03:28:14.648Z,19.63
2022-08-20T03:30:41.551Z,19.63
2022-08-20T03:33:08.808Z,19.61
2022-08-20T03:35:35.703Z,19.55
2022-08-20T03:38:02.187Z,19.54
2022-08-20T03:40:30.330Z,19.45
2022-08-20T03:42:57.041Z,19.31
2022-08-20T03:45:23.891Z,19.33
2022-08-20T03:47:51.594Z,19.24
2022-08-20T03:50:23.248Z,19.27
2022-08-20T03:52:53.760Z,19.19
2022-08-20T03:55:21.064Z,19.16
2022-08-20T03:57:48.748Z,19.15
2022-08-20T04:00:15.886Z,19.31
2022-08-20T04:02:42.203Z,19.12
2022-08-20T04:05:08.751Z,19.02
2022-08-20T04:07:36.402Z,19.02
2022-08-20T04:10:04.620Z,19.04
2022-08-20T04:12:30.931Z,19.13
2022-08-20T04:14:57.417Z,18.97
2022-08-20T04:17:24.620Z,19.07
2022-08-20T04:19:50.946Z,18.98
2022-08-20T04:22:18.529Z,18.94
2022-08-20T04:24:44.853Z,19.00
2022-08-20T04:27:11.980Z,18.94
2022-08-20T04:29:42.989Z,18.90
2022-08-20T04:32:09.548Z,18.94
2022-08-20T04:34:36.826Z,18.88
2022-08-20T04:37:03.478Z,18.88
2022-08-20T04:39:29.800Z,18.87
2022-08-20T04:41:56.126Z,18.95
2022-08-20T04:44:22.701Z,19.07
2022-08-20T04:46:49.012Z,19.22
2022-08-20T04:49:15.432Z,19.24
2022-08-20T04:51:41.818Z,19.24
2022-08-20T04:54:08.106Z,19.26
2022-08-20T04:56:39.697Z,19.27
2022-08-20T04:59:06.116Z,19.33
2022-08-20T05:01:33.155Z,19.38
2022-08-20T05:03:59.609Z,19.37
2022-08-20T05:06:28.473Z,19.38
2022-08-20T05:08:55.809Z,19.48
2022-08-20T05:11:34.881Z,19.53
2022-08-20T05:14:04.082Z,19.53
2022-08-20T05:16:30.481Z,19.50
2022-08-20T05:18:56.821Z,19.53
2022-08-20T05:21:23.143Z,19.43
2022-08-20T05:23:49.687Z,19.28
2022-08-20T05:26:16.575Z,19.22
2022-08-20T05:28:54.459Z,19.26
2022-08-20T05:31:30.985Z,19.30
2022-08-20T05:34:10.970Z,19.19
2022-08-20T05:36:39.592Z,19.18
2022-08-20T05:39:05.897Z,19.14
2022-08-20T05:41:32.216Z,19.09
2022-08-20T05:44:01.054Z,19.10
2022-08-20T05:46:27.723Z,18.94
2022-08-20T05:48:54.118Z,19.09
2022-08-20T05:51:20.396Z,18.96
2022-08-20T05:53:46.697Z,19.04
2022-08-20T05:56:13.046Z,18.95
2022-08-20T05:58:39.352Z,19.11
2022-08-20T06:01:05.955Z,18.98
2022-08-20T06:03:51.088Z,18.93
2022-08-20T06:06:44.063Z,18.94
2022-08-20T06:09:04.019Z,18.92
2022-08-20T06:11:35.033Z,18.93
2022-08-20T06:14:03.573Z,18.90
2022-08-20T06:16:30.872Z,19.00
2022-08-20T06:18:58.475Z,19.02
2022-08-20T06:21:24.898Z,18.96
2022-08-20T06:23:57.124Z,19.15
2022-08-20T06:26:29.981Z,19.15
2022-08-20T06:28:57.378Z,19.19
2022-08-20T06:31:23.699Z,19.33
2022-08-20T06:33:49.994Z,19.26
2022-08-20T06:36:18.888Z,19.33
2022-08-20T06:38:46.089Z,19.46
2022-08-20T06:41:12.373Z,19.34
2022-08-20T06:43:38.687Z,19.41
2022-08-20T06:46:05.453Z,19.34
2022-08-20T06:48:31.780Z,19.33
2022-08-20T06:50:58.160Z,19.36
2022-08-20T06:53:25.342Z,19.47
2022-08-20T06:55:53.542Z,19.52
2022-08-20T06:58:26.548Z,19.45
2022-08-20T07:01:10.394Z,19.43
2022-08-20T07:03:54.926Z,19.44
2022-08-20T07:06:22.453Z,19.42
2022-08-20T07:08:48.782Z,19.47
2022-08-20T07:11:15.089Z,19.32
2022-08-20T07:13:41.935Z,19.49
2022-08-20T07:16:08.272Z,19.46
2022-08-20T07:18:34.578Z,19.36
2022-08-20T07:21:01.035Z,19.29
2022-08-20T07:23:27.462Z,19.24
2022-08-20T07:25:55.497Z,19.28
2022-08-20T07:28:22.846Z,19.22
2022-08-20T07:31:13.332Z,19.19
2022-08-20T07:33:41.394Z,19.18
2022-08-20T07:36:07.828Z,19.22
2022-08-20T07:38:35.751Z,19.18
2022-08-20T07:41:10.125Z,19.19
2022-08-20T07:43:36.598Z,19.22
2022-08-20T07:46:07.589Z,19.19
2022-08-20T07:48:35.837Z,19.30
2022-08-20T07:51:05.913Z,19.27
2022-08-20T07:53:36.321Z,19.26
2022-08-20T07:56:05.877Z,19.29
2022-08-20T07:58:33.274Z,19.34
2022-08-20T08:01:00.136Z,19.30
2022-08-20T08:03:39.937Z,19.37
2022-08-20T08:06:14.538Z,19.34
2022-08-20T08:08:43.837Z,19.47
2022-08-20T08:11:11.076Z,19.61
2022-08-20T08:13:40.112Z,19.56
2022-08-20T08:16:07.294Z,19.75
2022-08-20T08:18:37.928Z,19.66
2022-08-20T08:21:05.493Z,19.77
2022-08-20T08:23:32.310Z,19.83
2022-08-20T08:25:59.249Z,19.80
2022-08-20T08:28:26.726Z,19.82
2022-08-20T08:30:53.039Z,19.87
2022-08-20T08:33:30.830Z,19.92
2022-08-20T08:36:05.121Z,19.90
2022-08-20T08:38:34.244Z,20.03
2022-08-20T08:41:08.422Z,20.07
2022-08-20T08:43:34.838Z,20.03
2022-08-20T08:46:03.513Z,20.12
2022-08-20T08:48:50.631Z,20.15
2022-08-20T08:51:20.507Z,20.27
2022-08-20T08:53:54.644Z,20.26
2022-08-20T08:56:24.842Z,20.17
2022-08-20T08:58:51.207Z,20.31
2022-08-20T09:01:55.132Z,20.31
2022-08-20T09:04:05.822Z,20.28
2022-08-20T09:06:32.629Z,20.34
2022-08-20T09:09:03.645Z,20.30
2022-08-20T09:11:30.308Z,19.64
2022-08-20T09:13:57.060Z,19.83
2022-08-20T09:16:24.433Z,20.13
2022-08-20T09:18:52.301Z,20.10
2022-08-20T09:21:18.851Z,20.21
2022-08-20T09:23:45.248Z,20.22
2022-08-20T09:26:12.017Z,20.19
2022-08-20T09:28:38.351Z,20.18
2022-08-20T09:31:04.852Z,20.32
2022-08-20T09:33:33.405Z,20.35
2022-08-20T09:35:59.784Z,20.41
2022-08-20T09:38:26.217Z,20.51
2022-08-20T09:40:52.557Z,20.48
2022-08-20T09:43:18.917Z,20.26
2022-08-20T09:45:45.239Z,20.35
2022-08-20T09:48:11.628Z,20.53
2022-08-20T09:50:41.054Z,20.54
2022-08-20T09:53:07.533Z,20.59
2022-08-20T09:55:35.842Z,20.61
2022-08-20T09:58:22.447Z,20.63
2022-08-20T10:00:48.853Z,20.53
2022-08-20T10:03:15.599Z,20.59
2022-08-20T10:05:42.008Z,20.64
2022-08-20T10:08:09.239Z,20.62
2022-08-20T10:10:36.015Z,20.61
2022-08-20T10:13:02.633Z,20.61
2022-08-20T10:15:29.823Z,20.62
2022-08-20T10:17:57.348Z,20.51
2022-08-20T10:20:24.775Z,20.46
2022-08-20T10:22:51.258Z,20.42
2022-08-20T10:25:17.818Z,20.36
2022-08-20T10:27:44.822Z,20.38
2022-08-20T10:30:11.279Z,20.35
2022-08-20T10:32:37.581Z,20.26
2022-08-20T10:35:04.387Z,20.39
2022-08-20T10:37:30.694Z,20.36
2022-08-20T10:39:57.461Z,20.22
2022-08-20T10:42:23.933Z,20.25
2022-08-20T10:44:50.233Z,20.14
2022-08-20T10:47:21.602Z,20.16
2022-08-20T10:49:48.964Z,20.25
2022-08-20T10:52:15.544Z,20.22
2022-08-20T10:54:42.290Z,20.22
2022-08-20T10:57:13.072Z,20.23
2022-08-20T10:59:40.851Z,20.27
2022-08-20T11:02:07.511Z,20.18
2022-08-20T11:04:34.278Z,20.31
2022-08-20T11:07:10.355Z,20.27
2022-08-20T11:09:36.707Z,20.22
2022-08-20T11:12:03.191Z,20.23
2022-08-20T11:14:29.519Z,20.21
2022-08-20T11:16:55.908Z,20.25
2022-08-20T11:19:22.246Z,20.24
2022-08-20T11:21:48.582Z,20.22
2022-08-20T11:24:15.074Z,20.23
2022-08-20T11:26:41.405Z,20.40
2022-08-20T11:29:07.856Z,20.44
2022-08-20T11:31:34.256Z,20.55
2022-08-20T11:34:00.554Z,20.48
2022-08-20T11:36:27.020Z,20.52
2022-08-20T11:38:53.497Z,20.53
2022-08-20T11:41:20.008Z,20.61
2022-08-20T11:44:04.793Z,20.64
2022-08-20T11:46:34.157Z,20.70
2022-08-20T11:49:00.471Z,20.72
2022-08-20T11:51:26.779Z,20.72
2022-08-20T11:53:53.200Z,20.74
2022-08-20T11:56:20.603Z,20.76
2022-08-20T11:58:47.968Z,20.78
2022-08-20T12:01:14.465Z,20.79
2022-08-20T12:03:40.776Z,20.82
2022-08-20T12:06:07.234Z,20.74
2022-08-20T12:08:33.656Z,20.76
2022-08-20T12:11:01.675Z,20.72
2022-08-20T12:13:47.751Z,20.66
2022-08-20T12:16:15.701Z,20.68
2022-08-20T12:18:42.411Z,20.62
2022-08-20T12:21:08.748Z,20.58
2022-08-20T12:23:35.093Z,20.57
2022-08-20T12:26:03.238Z,20.56
2022-08-20T12:28:30.191Z,20.49
2022-08-20T12:30:57.046Z,20.54
2022-08-20T12:33:23.690Z,20.50
2022-08-20T12:35:52.086Z,20.46
2022-08-20T12:38:18.642Z,20.45
2022-08-20T12:40:45.151Z,20.49
2022-08-20T12:43:11.550Z,20.53
2022-08-20T12:45:38.025Z,20.49
2022-08-20T12:48:06.390Z,20.53
2022-08-20T12:50:33.335Z,20.53
2022-08-20T12:53:00.519Z,20.51
2022-08-20T12:55:27.322Z,20.54
2022-08-20T12:57:56.427Z,20.47
2022-08-20T13:00:23.690Z,20.42
2022-08-20T13:02:51.227Z,20.51
2022-08-20T13:05:17.552Z,20.47
2022-08-20T13:07:44.406Z,20.49
2022-08-20T13:10:13.035Z,20.69
2022-08-20T13:12:39.337Z,20.81
2022-08-20T13:15:05.997Z,20.86
2022-08-20T13:17:38.787Z,20.95
2022-08-20T13:20:07.944Z,21.02
2022-08-20T13:22:34.631Z,21.04
2022-08-20T13:25:01.108Z,20.60
2022-08-20T13:27:27.749Z,21.01
2022-08-20T13:29:58.566Z,21.15
2022-08-20T13:32:25.693Z,21.21
2022-08-20T13:34:52.080Z,21.28
2022-08-20T13:37:25.527Z,21.32
2022-08-20T13:39:52.564Z,21.39
2022-08-20T13:42:18.982Z,21.44
2022-08-20T13:44:45.371Z,21.46
2022-08-20T13:47:19.022Z,21.49
2022-08-20T13:49:46.119Z,21.48
2022-08-20T13:52:12.449Z,21.58
2022-08-20T13:54:43.184Z,21.60
2022-08-20T13:57:11.677Z,21.59
2022-08-20T13:59:42.277Z,21.63
2022-08-20T14:02:10.744Z,21.61
2022-08-20T14:04:37.471Z,21.62
2022-08-20T14:07:17.656Z,21.58
2022-08-20T14:09:45.759Z,21.51
2022-08-20T14:12:13.372Z,21.46
2022-08-20T14:14:40.635Z,21.53
2022-08-20T14:17:17.487Z,21.50
2022-08-20T14:19:44.642Z,21.35
2022-08-20T14:22:11.031Z,21.30
2022-08-20T14:24:37.390Z,21.33
2022-08-20T14:27:07.540Z,21.29
2022-08-20T14:29:35.943Z,21.29
2022-08-20T14:32:04.275Z,21.23
2022-08-20T14:34:31.014Z,21.27
2022-08-20T14:36:58.135Z,21.22
2022-08-20T14:39:25.372Z,21.19
2022-08-20T14:41:51.685Z,21.33
2022-08-20T14:44:17.990Z,21.24
2022-08-20T14:46:44.363Z,21.25
2022-08-20T14:49:10.719Z,21.20
2022-08-20T14:51:38.697Z,21.24
2022-08-20T14:54:05.111Z,21.21
2022-08-20T14:56:31.556Z,21.19
2022-08-20T14:58:57.853Z,21.24
2022-08-20T15:01:24.193Z,21.33
2022-08-20T15:03:50.661Z,21.39
2022-08-20T15:06:21.739Z,21.42
2022-08-20T15:08:48.561Z,21.48
2022-08-20T15:11:14.905Z,21.51
2022-08-20T15:13:41.309Z,21.52
2022-08-20T15:16:07.615Z,21.58
2022-08-20T15:18:34.380Z,21.54
2022-08-20T15:21:00.681Z,21.59
2022-08-20T15:23:27.002Z,21.60
2022-08-20T15:25:53.416Z,21.59
2022-08-20T15:28:19.732Z,21.60
2022-08-20T15:30:46.263Z,21.64
2022-08-20T15:33:12.634Z,21.57
2022-08-20T15:35:39.062Z,21.63
2022-08-20T15:38:05.422Z,21.58
2022-08-20T15:40:32.459Z,21.59
2022-08-20T15:42:59.881Z,21.47
2022-08-20T15:45:26.598Z,21.45
2022-08-20T15:47:52.926Z,21.44
2022-08-20T15:50:30.191Z,21.26
2022-08-20T15:52:57.472Z,21.32
2022-08-20T15:55:24.342Z,21.32
2022-08-20T15:57:58.126Z,21.17
2022-08-20T16:00:47.490Z,21.19
2022-08-20T16:03:46.320Z,21.26
2022-08-20T16:06:17.178Z,21.36
2022-08-20T16:09:02.376Z,21.34
2022-08-20T16:11:47.655Z,21.19
2022-08-20T16:14:15.938Z,21.09
2022-08-20T16:16:59.102Z,21.36
2022-08-20T16:19:28.758Z,21.35
2022-08-20T16:21:56.688Z,21.13
2022-08-20T16:24:23.045Z,21.26
2022-08-20T16:26:49.462Z,21.30
2022-08-20T16:29:15.778Z,21.28
2022-08-20T16:31:49.613Z,21.10
2022-08-20T16:34:33.271Z,20.92
2022-08-20T16:37:04.504Z,20.83
2022-08-20T16:39:45.942Z,20.68
2022-08-20T16:42:17.898Z,20.62
2022-08-20T16:44:46.328Z,20.61
2022-08-20T16:47:17.117Z,20.87
2022-08-20T16:49:55.780Z,20.93
2022-08-20T16:52:22.176Z,20.93
2022-08-20T16:54:48.518Z,21.00
2022-08-20T16:57:17.383Z,20.99
2022-08-20T16:59:59.180Z,21.00
2022-08-20T17:02:25.918Z,21.04
2022-08-20T17:04:59.033Z,21.01
2022-08-20T17:07:46.492Z,21.04
2022-08-20T17:10:16.420Z,21.00
2022-08-20T17:12:43.113Z,21.05
2022-08-20T17:15:17.976Z,21.04
2022-08-20T17:17:44.278Z,21.03
2022-08-20T17:20:20.559Z,21.03
2022-08-20T17:22:52.911Z,21.03
2022-08-20T17:25:40.359Z,21.01
2022-08-20T17:28:17.480Z,20.96
2022-08-20T17:30:44.371Z,20.83
2022-08-20T17:33:24.299Z,20.62
2022-08-20T17:35:55.761Z,20.63
2022-08-20T17:38:25.849Z,20.63
2022-08-20T17:40:58.123Z,20.52
2022-08-20T17:43:25.555Z,20.51
2022-08-20T17:45:53.174Z,20.54
2022-08-20T17:48:46.114Z,20.46
2022-08-20T17:51:17.735Z,20.28
2022-08-20T17:53:46.406Z,20.44
2022-08-20T17:56:23.177Z,20.31
2022-08-20T17:59:19.086Z,20.43
2022-08-20T18:01:59.628Z,20.24
2022-08-20T18:04:26.367Z,20.30
2022-08-20T18:07:12.066Z,20.26
2022-08-20T18:09:52.640Z,20.25
2022-08-20T18:12:34.241Z,20.09
2022-08-20T18:15:07.145Z,19.96
2022-08-20T18:17:58.616Z,19.95
2022-08-20T18:20:43.338Z,20.15
2022-08-20T18:23:16.328Z,20.12
2022-08-20T18:25:49.623Z,20.07
2022-08-20T18:28:18.929Z,20.30
2022-08-20T18:31:04.771Z,20.37
2022-08-20T18:33:33.251Z,20.30
2022-08-20T18:36:10.200Z,20.38
2022-08-20T18:38:38.485Z,20.35
2022-08-20T18:41:05.845Z,20.34
2022-08-20T18:43:32.230Z,20.32
2022-08-20T18:46:18.924Z,20.33
2022-08-20T18:48:52.930Z,20.31
2022-08-20T18:51:20.980Z,20.30
2022-08-20T18:53:48.032Z,20.30
2022-08-20T18:56:29.363Z,20.28
2022-08-20T18:59:09.114Z,20.25
2022-08-20T19:01:36.543Z,20.24
2022-08-20T19:04:12.222Z,20.23
2022-08-20T19:06:44.900Z,20.19
2022-08-20T19:09:28.842Z,20.22
2022-08-20T19:11:55.219Z,20.19
2022-08-20T19:14:40.427Z,19.98
2022-08-20T19:17:16.114Z,19.91
2022-08-20T19:19:42.538Z,19.67
2022-08-20T19:22:10.785Z,19.68
2022-08-20T19:24:41.881Z,19.76
2022-08-20T19:27:11.104Z,19.69
2022-08-20T19:29:40.039Z,19.63
2022-08-20T19:32:08.064Z,19.56
2022-08-20T19:34:35.242Z,19.46
2022-08-20T19:37:27.796Z,19.52
2022-08-20T19:39:51.280Z,19.59
2022-08-20T19:42:20.293Z,19.47
2022-08-20T19:45:01.632Z,19.51
2022-08-20T19:47:49.305Z,19.44
2022-08-20T19:50:22.079Z,19.44
2022-08-20T19:52:48.443Z,19.45
2022-08-20T19:55:23.152Z,19.44
2022-08-20T19:57:52.818Z,19.27
2022-08-20T20:00:19.252Z,19.22
2022-08-20T20:02:45.752Z,19.37
2022-08-20T20:05:12.301Z,19.36
2022-08-20T20:07:40.451Z,19.33
2022-08-20T20:10:09.833Z,19.28
2022-08-20T20:12:36.491Z,19.28
2022-08-20T20:15:05.850Z,19.51
2022-08-20T20:17:34.726Z,19.68
2022-08-20T20:20:02.446Z,19.84
2022-08-20T20:22:31.169Z,19.91
2022-08-20T20:25:18.122Z,19.93
2022-08-20T20:27:49.415Z,19.92
2022-08-20T20:30:20.570Z,19.86
2022-08-20T20:32:49.172Z,19.90
2022-08-20T20:35:33.185Z,19.93
2022-08-20T20:38:04.141Z,19.92
2022-08-20T20:40:35.963Z,19.88
2022-08-20T20:43:09.628Z,19.90
2022-08-20T20:45:39.480Z,19.89
2022-08-20T20:48:16.961Z,19.89
2022-08-20T20:50:43.422Z,19.77
2022-08-20T20:53:09.933Z,19.83
2022-08-20T20:55:37.657Z,19.72
2022-08-20T20:58:04.486Z,19.74
2022-08-20T21:00:32.326Z,19.74
2022-08-20T21:02:59.761Z,19.62
2022-08-20T21:05:29.420Z,19.43
2022-08-20T21:08:01.348Z,19.66
2022-08-20T21:10:30.092Z,19.68
2022-08-20T21:12:56.766Z,19.57
2022-08-20T21:15:24.916Z,19.42
2022-08-20T21:17:52.032Z,19.42
2022-08-20T21:20:18.695Z,19.33
2022-08-20T21:22:45.630Z,19.23
2022-08-20T21:25:12.487Z,19.15
2022-08-20T21:27:45.908Z,19.05
2022-08-20T21:30:12.507Z,19.07
2022-08-20T21:32:38.951Z,19.22
2022-08-20T21:35:05.573Z,19.32
2022-08-20T21:37:32.476Z,19.21
2022-08-20T21:39:59.003Z,19.07
2022-08-20T21:42:28.956Z,19.05
2022-08-20T21:44:56.869Z,19.01
2022-08-20T21:47:23.218Z,18.95
2022-08-20T21:49:49.548Z,18.82
2022-08-20T21:52:16.460Z,18.94
2022-08-20T21:54:42.773Z,18.99
2022-08-20T21:57:14.392Z,19.09
2022-08-20T21:59:41.293Z,19.07
2022-08-20T22:02:08.385Z,19.28
2022-08-20T22:04:35.700Z,19.30
2022-08-20T22:07:03.466Z,19.32
2022-08-20T22:09:31.486Z,19.36
2022-08-20T22:12:00.846Z,19.33
2022-08-20T22:14:27.607Z,19.37
2022-08-20T22:16:53.906Z,19.45
2022-08-20T22:19:20.286Z,19.41
2022-08-20T22:21:46.958Z,19.48
2022-08-20T22:24:13.440Z,19.44
2022-08-20T22:26:40.754Z,19.38
2022-08-20T22:29:10.024Z,19.44
2022-08-20T22:31:37.585Z,19.41
2022-08-20T22:34:04.479Z,19.37
2022-08-20T22:36:31.751Z,19.40
2022-08-20T22:38:58.090Z,19.38
2022-08-20T22:41:24.589Z,19.34
2022-08-20T22:43:57.146Z,19.14
2022-08-20T22:46:26.444Z,19.17
2022-08-20T22:48:53.354Z,19.17
2022-08-20T22:51:24.225Z,19.29
2022-08-20T22:53:50.632Z,19.14
2022-08-20T22:56:19.844Z,19.09
2022-08-20T22:58:48.323Z,18.97
2022-08-20T23:01:16.966Z,18.93
2022-08-20T23:03:43.382Z,18.91
2022-08-20T23:06:10.470Z,18.81
2022-08-20T23:08:37.917Z,18.69
2022-08-20T23:11:04.311Z,18.73
2022-08-20T23:13:30.598Z,18.58
2022-08-20T23:15:58.716Z,18.58
2022-08-20T23:18:25.095Z,18.49
2022-08-20T23:20:56.286Z,18.54
2022-08-20T23:23:23.290Z,18.40
2022-08-20T23:25:49.878Z,18.50
2022-08-20T23:28:17.787Z,18.40
2022-08-20T23:30:44.129Z,18.34
2022-08-20T23:33:10.472Z,18.31
2022-08-20T23:35:37.528Z,18.36
2022-08-20T23:38:03.835Z,18.45
2022-08-20T23:40:30.205Z,18.34
2022-08-20T23:42:57.266Z,18.37
2022-08-20T23:45:23.808Z,18.45
2022-08-20T23:47:50.466Z,18.34
2022-08-20T23:50:25.706Z,18.39
2022-08-20T23:52:52.716Z,18.46
2022-08-20T23:55:19.228Z,18.40
2022-08-20T23:57:45.624Z,18.43
